createdAt,value
2018-04-07T00:01:27.637Z,2.50
2018-04-07T00:05:30.288Z,2.87
2018-04-07T00:09:33.697Z,2.70
2018-04-07T00:13:36.381Z,2.60
2018-04-07T00:17:39.009Z,2.77
2018-04-07T00:21:41.702Z,3.23
2018-04-07T00:25:44.342Z,2.93
2018-04-07T00:29:47.031Z,2.70
2018-04-07T00:33:50.436Z,3.03
2018-04-07T00:37:53.922Z,2.80
2018-04-07T00:41:56.561Z,2.93
2018-04-07T00:45:59.197Z,2.97
2018-04-07T00:50:01.844Z,2.83
2018-04-07T00:54:04.606Z,3.03
2018-04-07T00:58:07.246Z,2.67
2018-04-07T01:02:09.944Z,3.67
2018-04-07T01:06:13.449Z,3.33
2018-04-07T01:10:16.099Z,3.43
2018-04-07T01:14:18.746Z,2.97
2018-04-07T01:18:21.354Z,3.57
2018-04-07T01:22:24.761Z,2.90
2018-04-07T01:26:28.231Z,2.80
2018-04-07T01:30:30.935Z,3.60
2018-04-07T01:34:33.537Z,2.77
2018-04-07T01:38:36.261Z,3.07
2018-04-07T01:42:38.898Z,3.27
2018-04-07T01:46:41.536Z,4.40
2018-04-07T01:50:44.182Z,3.27
2018-04-07T01:54:46.778Z,3.97
2018-04-07T01:58:49.417Z,3.43
2018-04-07T02:02:52.122Z,3.90
2018-04-07T02:06:54.760Z,3.70
2018-04-07T02:10:58.172Z,3.37
2018-04-07T02:15:00.864Z,3.73
2018-04-07T02:19:04.269Z,3.23
2018-04-07T02:23:06.914Z,3.37
2018-04-07T02:27:09.762Z,4.13
2018-04-07T02:31:12.398Z,3.90
2018-04-07T02:35:14.995Z,4.33
2018-04-07T02:39:17.637Z,3.90
2018-04-07T02:43:20.274Z,4.23
2018-04-07T02:47:22.914Z,4.73
2018-04-07T02:51:25.513Z,3.83
2018-04-07T02:55:28.154Z,3.80
2018-04-07T02:59:31.557Z,3.87
2018-04-07T03:03:34.962Z,3.70
2018-04-07T03:07:38.434Z,3.67
2018-04-07T03:11:41.045Z,4.03
2018-04-07T03:15:43.727Z,3.77
2018-04-07T03:19:46.357Z,4.17
2018-04-07T03:23:48.997Z,3.77
2018-04-07T03:27:51.632Z,3.80
2018-04-07T03:31:54.241Z,4.30
2018-04-07T03:35:57.733Z,3.90
2018-04-07T03:40:00.365Z,4.13
2018-04-07T03:44:03.014Z,4.63
2018-04-07T03:48:05.657Z,3.97
2018-04-07T03:52:08.258Z,3.43
2018-04-07T03:56:11.719Z,4.20
2018-04-07T04:00:14.353Z,3.93
2018-04-07T04:04:17.745Z,3.40
2018-04-07T04:08:21.184Z,4.43
2018-04-07T04:12:23.816Z,4.07
2018-04-07T04:16:26.462Z,4.77
2018-04-07T04:20:29.105Z,3.60
2018-04-07T04:24:31.758Z,4.77
2018-04-07T04:28:34.365Z,5.07
2018-04-07T04:32:37.011Z,4.87
2018-04-07T04:36:39.661Z,5.10
2018-04-07T04:40:42.297Z,4.33
2018-04-07T04:44:44.990Z,4.23
2018-04-07T04:48:47.593Z,3.90
2018-04-07T04:52:50.233Z,4.63
2018-04-07T04:56:53.642Z,5.27
2018-04-07T05:00:57.044Z,4.27
2018-04-07T05:04:59.729Z,4.87
2018-04-07T05:09:02.326Z,4.17
2018-04-07T05:13:04.997Z,3.87
2018-04-07T05:17:07.637Z,5.17
2018-04-07T05:21:10.275Z,4.63
2018-04-07T05:25:12.877Z,3.90
2018-04-07T05:29:16.283Z,6.10
2018-04-07T05:33:19.749Z,4.97
2018-04-07T05:37:22.385Z,4.50
2018-04-07T05:41:25.849Z,4.70
2018-04-07T05:45:28.445Z,5.00
2018-04-07T05:49:31.077Z,4.57
2018-04-07T05:53:34.533Z,4.63
2018-04-07T05:57:37.173Z,4.30
2018-04-07T06:01:40.585Z,4.90
2018-04-07T06:05:44.058Z,4.30
2018-04-07T06:09:46.889Z,4.10
2018-04-07T06:13:49.531Z,4.67
2018-04-07T06:17:52.222Z,4.30
2018-04-07T06:21:54.863Z,5.10
2018-04-07T06:25:57.529Z,4.93
2018-04-07T06:30:00.933Z,4.07
2018-04-07T06:34:04.333Z,5.43
2018-04-07T06:38:07.733Z,5.03
2018-04-07T06:42:11.130Z,4.67
2018-04-07T06:46:13.727Z,4.47
2018-04-07T06:50:17.129Z,5.00
2018-04-07T06:54:19.812Z,4.40
2018-04-07T06:58:22.444Z,5.20
2018-04-07T07:02:25.098Z,4.67
2018-04-07T07:06:28.505Z,4.60
2018-04-07T07:10:31.915Z,5.47
2018-04-07T07:14:35.323Z,4.87
2018-04-07T07:18:38.070Z,5.53
2018-04-07T07:22:40.722Z,4.03
2018-04-07T07:26:43.359Z,4.43
2018-04-07T07:30:46.007Z,4.37
2018-04-07T07:34:48.648Z,4.87
2018-04-07T07:38:51.285Z,4.87
2018-04-07T07:42:54.655Z,4.77
2018-04-07T07:46:58.065Z,4.60
2018-04-07T07:51:01.525Z,4.33
2018-04-07T07:55:04.162Z,4.50
2018-04-07T07:59:07.565Z,4.60
2018-04-07T08:03:10.941Z,4.53
2018-04-07T08:07:13.593Z,4.50
2018-04-07T08:11:16.241Z,4.90
2018-04-07T08:15:19.651Z,5.10
2018-04-07T08:19:23.104Z,4.70
2018-04-07T08:23:25.803Z,5.30
2018-04-07T08:27:28.514Z,4.50
2018-04-07T08:31:31.195Z,4.50
2018-04-07T08:35:33.885Z,5.47
2018-04-07T08:39:36.534Z,5.40
2018-04-07T08:43:39.171Z,5.17
2018-04-07T08:47:41.830Z,6.03
2018-04-07T08:51:44.465Z,5.73
2018-04-07T08:55:47.883Z,4.70
2018-04-07T08:59:51.240Z,4.63
2018-04-07T09:03:53.945Z,5.13
2018-04-07T09:07:56.642Z,4.90
2018-04-07T09:11:59.272Z,5.07
2018-04-07T09:16:01.916Z,4.80
2018-04-07T09:20:04.518Z,5.17
2018-04-07T09:24:07.168Z,5.07
2018-04-07T09:28:09.820Z,5.07
2018-04-07T09:32:12.462Z,5.47
2018-04-07T09:36:15.075Z,5.37
2018-04-07T09:40:18.478Z,4.93
2018-04-07T09:44:21.122Z,5.43
2018-04-07T09:48:23.787Z,5.37
2018-04-07T09:52:26.429Z,6.53
2018-04-07T09:56:29.029Z,5.77
2018-04-07T10:00:31.674Z,5.23
2018-04-07T10:04:34.308Z,5.37
2018-04-07T10:08:37.717Z,5.90
2018-04-07T10:12:41.122Z,5.73
2018-04-07T10:16:44.491Z,5.50
2018-04-07T10:20:47.128Z,5.60
2018-04-07T10:24:50.533Z,6.27
2018-04-07T10:28:53.948Z,5.97
2018-04-07T10:32:56.584Z,6.33
2018-04-07T10:36:59.194Z,5.63
2018-04-07T10:41:01.869Z,5.87
2018-04-07T10:45:04.502Z,5.30
2018-04-07T10:49:07.147Z,6.27
2018-04-07T10:53:09.758Z,6.03
2018-04-07T10:57:13.161Z,6.10
2018-04-07T11:01:16.573Z,6.17
2018-04-07T11:05:19.978Z,5.90
2018-04-07T11:09:23.450Z,6.10
2018-04-07T11:13:26.064Z,6.23
2018-04-07T11:17:28.710Z,6.07
2018-04-07T11:21:32.165Z,6.37
2018-04-07T11:25:35.578Z,7.00
2018-04-07T11:29:39.050Z,6.63
2018-04-07T11:33:41.660Z,6.53
2018-04-07T11:37:44.366Z,7.07
2018-04-07T11:41:47.768Z,6.43
2018-04-07T11:45:51.267Z,6.57
2018-04-07T11:49:53.921Z,6.03
2018-04-07T11:53:56.521Z,5.70
2018-04-07T11:57:59.274Z,6.37
2018-04-07T12:02:01.921Z,6.83
2018-04-07T12:06:04.560Z,6.10
2018-04-07T12:10:07.170Z,6.37
2018-04-07T12:14:09.866Z,5.90
2018-04-07T12:18:12.501Z,6.00
2018-04-07T12:22:15.138Z,5.13
2018-04-07T12:26:17.782Z,6.00
2018-04-07T12:30:20.381Z,6.27
2018-04-07T12:34:23.070Z,5.83
2018-04-07T12:38:25.773Z,6.53
2018-04-07T12:42:28.408Z,5.70
2018-04-07T12:46:31.820Z,6.53
2018-04-07T12:50:35.194Z,6.87
2018-04-07T12:54:37.834Z,6.60
2018-04-07T12:58:40.468Z,7.00
2018-04-07T13:02:43.220Z,7.40
2018-04-07T13:06:45.861Z,6.63
2018-04-07T13:10:48.458Z,6.37
2018-04-07T13:14:51.178Z,6.37
2018-04-07T13:18:53.817Z,6.63
2018-04-07T13:22:56.451Z,5.60
2018-04-07T13:26:59.094Z,6.40
2018-04-07T13:31:01.694Z,5.53
2018-04-07T13:35:04.333Z,5.87
2018-04-07T13:39:06.969Z,6.00
2018-04-07T13:43:09.624Z,5.90
2018-04-07T13:47:12.221Z,5.53
2018-04-07T13:51:14.857Z,6.10
2018-04-07T13:55:18.257Z,5.23
2018-04-07T13:59:21.718Z,6.10
2018-04-07T14:03:24.362Z,5.70
2018-04-07T14:07:27.721Z,5.27
2018-04-07T14:11:30.363Z,5.30
2018-04-07T14:15:33.002Z,5.70
2018-04-07T14:19:35.709Z,5.60
2018-04-07T14:23:38.354Z,6.57
2018-04-07T14:27:41.016Z,5.77
2018-04-07T14:31:43.652Z,5.90
2018-04-07T14:35:46.293Z,6.20
2018-04-07T14:39:48.940Z,6.40
2018-04-07T14:43:51.582Z,5.57
2018-04-07T14:47:54.251Z,5.73
2018-04-07T14:51:56.935Z,5.03
2018-04-07T14:56:00.358Z,6.33
2018-04-07T15:00:02.997Z,5.63
2018-04-07T15:04:05.608Z,5.93
2018-04-07T15:08:09.070Z,6.13
2018-04-07T15:12:11.710Z,5.80
2018-04-07T15:16:15.136Z,5.30
2018-04-07T15:20:17.783Z,5.63
2018-04-07T15:24:20.396Z,5.57
2018-04-07T15:28:23.803Z,5.47
2018-04-07T15:32:27.215Z,5.70
2018-04-07T15:36:29.989Z,5.53
2018-04-07T15:40:33.400Z,5.87
2018-04-07T15:44:36.769Z,5.73
2018-04-07T15:48:39.422Z,5.60
2018-04-07T15:52:42.063Z,7.30
2018-04-07T15:56:44.739Z,6.97
2018-04-07T16:00:47.392Z,5.97
2018-04-07T16:04:50.002Z,6.63
2018-04-07T16:08:52.686Z,6.73
2018-04-07T16:12:55.326Z,4.73
2018-04-07T16:16:58.733Z,6.10
2018-04-07T16:21:02.098Z,6.07
2018-04-07T16:25:04.747Z,6.27
2018-04-07T16:29:07.389Z,6.80
2018-04-07T16:33:10.030Z,6.27
2018-04-07T16:37:12.704Z,6.40
2018-04-07T16:41:15.306Z,6.33
2018-04-07T16:45:17.992Z,6.33
2018-04-07T16:49:20.776Z,6.47
2018-04-07T16:53:23.418Z,6.07
2018-04-07T16:57:26.057Z,6.37
2018-04-07T17:01:28.671Z,6.10
2018-04-07T17:05:31.377Z,5.80
2018-04-07T17:09:34.011Z,5.80
2018-04-07T17:13:36.652Z,5.87
2018-04-07T17:17:39.294Z,6.13
2018-04-07T17:21:41.892Z,6.27
2018-04-07T17:25:44.534Z,6.60
2018-04-07T17:29:47.260Z,5.87
2018-04-07T17:33:49.898Z,6.63
2018-04-07T17:37:52.550Z,6.57
2018-04-07T17:41:55.252Z,6.63
2018-04-07T17:45:57.894Z,6.67
2018-04-07T17:50:01.311Z,6.13
2018-04-07T17:54:03.967Z,6.33
2018-04-07T17:58:06.577Z,7.13
2018-04-07T18:02:10.044Z,7.63
2018-04-07T18:06:12.741Z,7.57
2018-04-07T18:10:15.412Z,8.27
2018-04-07T18:14:18.058Z,7.63
2018-04-07T18:18:21.425Z,7.83
2018-04-07T18:22:24.064Z,7.63
2018-04-07T18:26:26.714Z,8.03
2018-04-07T18:30:29.362Z,8.60
2018-04-07T18:34:32.004Z,9.77
2018-04-07T18:38:35.373Z,8.27
2018-04-07T18:42:38.021Z,7.70
2018-04-07T18:46:40.675Z,7.63
2018-04-07T18:50:43.386Z,7.70
2018-04-07T18:54:46.806Z,8.20
2018-04-07T18:58:49.457Z,7.90
2018-04-07T19:02:52.140Z,7.63
2018-04-07T19:06:54.786Z,7.30
2018-04-07T19:10:57.437Z,7.63
2018-04-07T19:15:00.802Z,7.83
2018-04-07T19:19:03.506Z,7.40
2018-04-07T19:23:06.145Z,7.63
2018-04-07T19:27:08.802Z,8.00
2018-04-07T19:31:11.454Z,6.97
2018-04-07T19:35:14.061Z,7.33
2018-04-07T19:39:17.515Z,9.57
2018-04-07T19:43:20.166Z,8.40
2018-04-07T19:47:22.817Z,7.90
2018-04-07T19:51:25.470Z,7.97
2018-04-07T19:55:28.845Z,7.97
2018-04-07T19:59:31.489Z,8.83
2018-04-07T20:03:34.131Z,8.20
2018-04-07T20:07:36.773Z,8.50
2018-04-07T20:11:39.434Z,8.23
2018-04-07T20:15:42.069Z,8.00
2018-04-07T20:19:44.715Z,8.67
2018-04-07T20:23:47.440Z,7.53
2018-04-07T20:27:50.106Z,8.50
2018-04-07T20:31:52.715Z,7.43
2018-04-07T20:35:55.386Z,7.63
2018-04-07T20:39:58.041Z,7.83
2018-04-07T20:44:01.501Z,7.40
2018-04-07T20:48:04.168Z,7.90
2018-04-07T20:52:06.869Z,8.33
2018-04-07T20:56:09.513Z,8.13
2018-04-07T21:00:12.986Z,7.70
2018-04-07T21:04:15.645Z,8.63
2018-04-07T21:08:18.291Z,9.77
2018-04-07T21:12:21.697Z,9.90
2018-04-07T21:16:25.117Z,9.20
2018-04-07T21:20:27.798Z,8.87
2018-04-07T21:24:31.261Z,9.57
2018-04-07T21:28:33.918Z,9.60
2018-04-07T21:32:36.533Z,10.17
2018-04-07T21:36:39.190Z,8.73
2018-04-07T21:40:41.840Z,9.43
2018-04-07T21:44:44.483Z,8.93
2018-04-07T21:48:47.089Z,9.37
2018-04-07T21:52:49.748Z,9.27
2018-04-07T21:56:52.393Z,8.40
2018-04-07T22:00:55.041Z,8.33
2018-04-07T22:04:57.683Z,10.23
2018-04-07T22:09:01.053Z,8.97
2018-04-07T22:13:03.705Z,8.30
2018-04-07T22:17:06.353Z,9.00
2018-04-07T22:21:08.998Z,9.10
2018-04-07T22:25:12.481Z,9.93
2018-04-07T22:29:15.090Z,8.30
2018-04-07T22:33:17.741Z,8.43
2018-04-07T22:37:21.157Z,8.60
2018-04-07T22:41:24.574Z,8.77
2018-04-07T22:45:27.210Z,8.67
2018-04-07T22:49:29.823Z,8.40
2018-04-07T22:53:33.233Z,8.33
2018-04-07T22:57:36.647Z,8.50
2018-04-07T23:01:40.058Z,8.00
2018-04-07T23:05:43.478Z,7.77
2018-04-07T23:09:46.168Z,8.67
2018-04-07T23:13:48.817Z,7.73
2018-04-07T23:17:51.504Z,7.73
2018-04-07T23:21:54.144Z,7.57
2018-04-07T23:25:56.752Z,7.97
2018-04-07T23:29:59.453Z,7.23
2018-04-07T23:34:02.115Z,7.93
2018-04-07T23:38:04.770Z,8.33
2018-04-07T23:42:08.186Z,8.07
2018-04-07T23:46:10.790Z,7.43
2018-04-07T23:50:13.438Z,8.13
2018-04-07T23:54:16.086Z,8.87
2018-04-07T23:58:18.748Z,9.37
